Time;durP1;ratioP1;P1;durP2;ratioP2;P2;SDS_P1;SDS_P2;PMS_P1;PMS_P2;Temp;Humidity;BMP_temperature;BMP_pressure;BME280_temperature;BME280_humidity;BME280_pressure;Samples;Min_cycle;Max_cycle;Signal;HPM_P1;HPM_P2
2024/03/12 00:02:34;;;;;;;8.55;4.20;;;;;;;21.02;48.48;100363.09;2303268;76;51003;-79
2024/03/12 00:05:38;;;;;;;9.78;4.65;;;;;;;21.09;48.42;100374.17;2339790;76;51604;-79
2024/03/12 00:08:42;;;;;;;11.20;4.10;;;;;;;21.08;48.44;100376.53;2340180;76;51566;-80
2024/03/12 00:11:45;;;;;;;7.95;3.87;;;;;;;21.09;48.46;100373.32;2303698;76;50312;-80
2024/03/12 00:14:47;;;;;;;12.90;4.12;;;;;;;21.09;48.43;100376.01;2340036;76;51593;-79
2024/03/12 00:17:50;;;;;;;10.18;3.72;;;;;;;21.08;48.43;100380.57;2302991;76;51039;-80
2024/03/12 00:20:56;;;;;;;8.45;3.87;;;;;;;21.09;48.41;100375.52;2339514;76;50792;-81
2024/03/12 00:23:58;;;;;;;;;;;;;;;21.09;48.37;100373.32;2305993;76;50328;-81
2024/03/12 00:27:00;;;;;;;8.25;3.98;;;;;;;21.08;48.40;100366.30;2302832;76;51111;-81
2024/03/12 00:30:03;;;;;;;11.63;4.35;;;;;;;21.07;48.29;100366.82;2277489;76;49927;-81
2024/03/12 00:33:05;;;;;;;11.18;4.25;;;;;;;21.07;48.25;100376.23;2277852;76;51331;-80
2024/03/12 00:36:07;;;;;;;9.58;3.62;;;;;;;21.07;48.24;100376.76;2277579;76;50135;-80
2024/03/12 00:39:10;;;;;;;7.75;4.33;;;;;;;21.08;48.20;100379.75;2277787;76;51544;-81
2024/03/12 00:42:14;;;;;;;8.50;3.90;;;;;;;21.07;48.21;100375.41;2339589;76;51572;-82
2024/03/12 00:45:25;;;;;;;9.53;4.12;;;;;;;21.06;48.14;100377.25;2303176;76;51609;-80
2024/03/12 00:48:20;;;;;;;8.68;3.98;;;;;;;21.08;48.10;100375.71;2337875;76;22325;-82
2024/03/12 00:51:22;;;;;;;11.00;4.10;;;;;;;21.06;48.11;100373.22;2339533;76;50631;-81
2024/03/12 00:54:24;;;;;;;7.67;4.00;;;;;;;21.08;48.01;100367.64;2339570;76;50452;-81
2024/03/12 00:57:27;;;;;;;10.15;3.90;;;;;;;21.07;48.01;100363.30;2339532;76;51199;-80
2024/03/12 01:00:33;;;;;;;6.62;3.85;;;;;;;21.07;47.99;100372.20;2302621;76;51067;-81
2024/03/12 01:03:34;;;;;;;7.55;4.08;;;;;;;21.06;48.01;100374.56;2339316;76;22459;-81
2024/03/12 01:06:36;;;;;;;11.53;4.10;;;;;;;21.07;48.00;100380.27;2339586;76;50940;-81
2024/03/12 01:09:41;;;;;;;7.83;3.95;;;;;;;21.06;47.99;100378.59;2339473;76;50253;-80
2024/03/12 01:12:43;;;;;;;8.98;3.55;;;;;;;21.06;47.97;100381.81;2339704;76;51542;-81
2024/03/12 01:15:45;;;;;;;8.50;3.50;;;;;;;21.06;47.98;100396.08;2339323;76;51503;-81
2024/03/12 01:18:48;;;;;;;8.85;3.62;;;;;;;21.06;47.97;100394.73;2339232;76;50441;-82
2024/03/12 01:21:51;;;;;;;6.30;3.25;;;;;;;21.05;47.91;100385.02;2302748;76;50775;-81
2024/03/12 01:24:53;;;;;;;8.25;3.90;;;;;;;21.08;47.86;100381.91;2339663;76;51460;-81
2024/03/12 01:27:56;;;;;;;7.28;3.27;;;;;;;21.06;47.89;100388.02;2339562;76;52007;-81
2024/03/12 01:31:00;;;;;;;9.68;3.75;;;;;;;21.06;47.85;100385.32;2339507;76;51471;-81
2024/03/12 01:34:02;;;;;;;8.48;3.52;;;;;;;21.05;47.85;100386.37;2303691;76;22381;-80
2024/03/12 01:37:05;;;;;;;7.37;3.62;;;;;;;21.06;47.83;100388.02;2339280;76;50733;-81
2024/03/12 01:40:29;;;;;;;7.45;3.58;;;;;;;21.06;47.84;100386.66;2277697;76;49510;-80
2024/03/12 01:43:28;;;;;;;7.95;3.37;;;;;;;21.05;47.88;100385.55;2337849;76;22412;-80
2024/03/12 01:46:32;;;;;;;7.00;3.40;;;;;;;21.05;47.90;100387.72;2339655;76;52141;-79
2024/03/12 01:49:34;;;;;;;8.90;3.87;;;;;;;21.04;47.86;100378.00;2302564;76;49643;-79
2024/03/12 01:52:36;;;;;;;6.42;3.65;;;;;;;21.04;47.86;100379.84;2339907;76;50640;-80
2024/03/12 01:55:42;;;;;;;7.33;3.05;;;;;;;21.04;47.83;100375.31;2339841;76;51708;-80
2024/03/12 01:58:44;;;;;;;8.53;3.70;;;;;;;21.05;47.84;100376.95;2279499;76;22363;-80
2024/03/12 02:01:46;;;;;;;10.72;3.67;;;;;;;21.04;47.83;100380.69;2340352;76;51466;-80
2024/03/12 02:04:48;;;;;;;11.12;3.52;;;;;;;21.05;47.83;100380.16;2303554;76;49471;-80
2024/03/12 02:07:53;;;;;;;6.28;3.45;;;;;;;21.03;47.86;100374.98;2340395;76;50610;-80
2024/03/12 02:10:55;;;;;;;9.05;3.65;;;;;;;21.04;47.85;100379.84;2340670;76;51502;-79
2024/03/12 02:13:57;;;;;;;6.75;3.67;;;;;;;21.05;47.79;100378.82;2303575;76;51241;-80
2024/03/12 02:16:59;;;;;;;5.37;3.45;;;;;;;21.04;47.78;100377.14;2340432;76;50190;-81
2024/03/12 02:20:02;;;;;;;8.03;3.45;;;;;;;21.04;47.75;100373.96;2340769;76;50894;-79
2024/03/12 02:23:05;;;;;;;8.78;3.50;;;;;;;21.04;47.74;100379.34;2279273;76;51461;-82
2024/03/12 02:26:09;;;;;;;7.85;3.40;;;;;;;21.04;47.70;100376.66;2303537;76;51706;-79
2024/03/12 02:29:13;;;;;;;6.17;3.15;;;;;;;21.04;47.75;100367.23;2303678;76;49642;-81
2024/03/12 02:32:15;;;;;;;5.62;3.10;;;;;;;21.04;47.69;100370.42;2340302;76;51691;-79
2024/03/12 02:35:17;;;;;;;8.05;3.50;;;;;;;21.04;47.70;100373.11;2340268;76;51278;-80
2024/03/12 02:38:20;;;;;;;6.85;3.33;;;;;;;21.04;47.70;100377.14;2278448;76;51356;-80
2024/03/12 02:41:22;;;;;;;5.47;3.25;;;;;;;21.04;47.68;100383.37;2340157;76;51483;-80
2024/03/12 02:44:25;;;;;;;6.78;3.20;;;;;;;21.04;47.65;100380.69;2339992;76;50243;-80
2024/03/12 02:47:27;;;;;;;5.97;3.05;;;;;;;21.05;47.62;100380.98;2303444;76;51535;-80
2024/03/12 02:50:29;;;;;;;5.67;3.30;;;;;;;21.04;47.60;100383.37;2303683;76;50223;-82
2024/03/12 02:53:31;;;;;;;8.73;3.65;;;;;;;21.04;47.60;100381.18;2303285;76;51770;-80
2024/03/12 02:56:34;;;;;;;5.17;3.22;;;;;;;21.04;47.60;100390.11;2340075;76;51477;-79
2024/03/12 02:59:38;;;;;;;5.53;2.70;;;;;;;21.03;47.56;100383.05;2340464;76;50204;-81
2024/03/12 03:02:40;;;;;;;5.03;3.00;;;;;;;21.04;47.59;100390.59;2278569;76;49754;-81
2024/03/12 03:05:43;;;;;;;7.60;3.20;;;;;;;21.04;47.57;100389.25;2340175;76;51289;-79
2024/03/12 03:08:45;;;;;;;6.37;3.40;;;;;;;21.03;47.57;100395.16;2304321;76;50779;-80
2024/03/12 03:11:48;;;;;;;7.20;3.37;;;;;;;21.04;47.54;100395.48;2340299;76;50800;-80
2024/03/12 03:14:50;;;;;;;5.70;3.20;;;;;;;21.04;47.56;100400.01;2340046;76;50744;-80
2024/03/12 03:17:52;;;;;;;6.62;2.92;;;;;;;21.04;47.56;100397.32;2302973;76;50979;-81
2024/03/12 03:20:55;;;;;;;5.83;3.00;;;;;;;21.04;47.49;100402.21;2340147;76;51592;-81
2024/03/12 03:23:57;;;;;;;5.70;3.20;;;;;;;21.03;47.51;100400.53;2303549;76;51499;-81
2024/03/12 03:26:59;;;;;;;3.83;2.72;;;;;;;21.04;47.48;100402.21;2303401;76;51078;-82
2024/03/12 03:30:03;;;;;;;5.20;2.98;;;;;;;21.03;47.50;100405.91;2340364;76;51568;-82
2024/03/12 03:33:08;;;;;;;7.10;3.00;;;;;;;21.02;47.50;100402.92;2340479;76;50996;-81
2024/03/12 03:36:09;;;;;;;6.33;2.70;;;;;;;21.02;47.50;100411.00;2304151;76;22343;-81
2024/03/12 03:39:11;;;;;;;5.70;3.27;;;;;;;21.02;47.51;100410.17;2302912;76;50537;-81
2024/03/12 03:42:15;;;;;;;3.77;2.72;;;;;;;21.01;47.52;100413.36;2277525;76;49570;-79
2024/03/12 03:45:17;;;;;;;4.83;3.02;;;;;;;21.02;47.47;100412.34;2339408;76;50452;-80
2024/03/12 03:48:20;;;;;;;5.47;3.05;;;;;;;21.03;47.44;100413.16;2339648;76;52266;-80
2024/03/12 03:51:22;;;;;;;5.95;3.00;;;;;;;21.03;47.45;100416.67;2302718;76;51420;-81
2024/03/12 03:54:25;;;;;;;8.18;2.92;;;;;;;21.02;47.47;100420.41;2339964;76;52115;-81
2024/03/12 03:57:27;;;;;;;5.53;2.90;;;;;;;21.03;47.42;100426.61;2340096;76;50464;-81
2024/03/12 04:00:32;;;;;;;4.95;2.60;;;;;;;21.01;47.45;100424.11;2340424;76;50415;-81
2024/03/12 04:03:34;;;;;;;4.65;3.00;;;;;;;21.01;47.44;100426.80;2340789;76;51301;-81
2024/03/12 04:06:40;;;;;;;7.00;3.00;;;;;;;21.00;47.45;100434.58;2278174;76;51236;-80
2024/03/12 04:09:42;;;;;;;6.92;3.60;;;;;;;21.00;47.40;100430.54;2340580;76;51559;-81
2024/03/12 04:12:44;;;;;;;7.42;3.10;;;;;;;20.99;47.44;100434.27;2340285;76;50775;-81
2024/03/12 04:15:47;;;;;;;5.75;2.98;;;;;;;20.99;47.43;100435.62;2277945;76;51052;-82
2024/03/12 04:18:50;;;;;;;4.35;2.60;;;;;;;21.00;47.42;100444.51;2340091;76;50984;-80
2024/03/12 04:21:52;;;;;;;4.47;2.72;;;;;;;20.99;47.39;100436.96;2303488;76;50634;-80
2024/03/12 04:24:54;;;;;;;6.47;3.08;;;;;;;21.00;47.40;100440.48;2340268;76;50497;-80
2024/03/12 04:27:56;;;;;;;4.00;2.75;;;;;;;20.99;47.42;100449.07;2340354;76;50734;-80
2024/03/12 04:30:59;;;;;;;4.40;2.77;;;;;;;20.99;47.40;100444.18;2303432;76;49530;-80
2024/03/12 04:34:01;;;;;;;4.10;2.58;;;;;;;21.00;47.39;100448.55;2340435;76;50621;-81
2024/03/12 04:37:04;;;;;;;5.25;2.80;;;;;;;20.99;47.33;100450.41;2340181;76;51572;-79
2024/03/12 04:40:07;;;;;;;3.72;2.90;;;;;;;21.00;47.36;100453.41;2278085;76;49893;-82
2024/03/12 04:43:10;;;;;;;6.37;2.80;;;;;;;21.00;47.36;100457.44;2340514;76;51678;-81
2024/03/12 04:46:12;;;;;;;6.03;2.80;;;;;;;21.00;47.39;100457.44;2303848;76;51127;-80
2024/03/12 04:49:14;;;;;;;5.78;3.42;;;;;;;21.00;47.36;100464.16;2340347;76;49955;-81
2024/03/12 04:52:16;;;;;;;6.10;3.02;;;;;;;21.01;47.37;100468.50;2340235;76;50696;-80
2024/03/12 04:55:18;;;;;;;4.95;3.42;;;;;;;21.00;47.36;100464.16;2303111;76;50213;-80
2024/03/12 04:58:21;;;;;;;4.72;2.80;;;;;;;21.00;47.32;100470.06;2340211;76;50744;-81
2024/03/12 05:01:23;;;;;;;6.53;2.40;;;;;;;20.99;47.26;100469.24;2339983;76;50773;-81
2024/03/12 05:04:26;;;;;;;7.80;3.12;;;;;;;21.01;47.29;100471.19;2303122;76;49922;-81
2024/03/12 05:07:28;;;;;;;8.30;3.12;;;;;;;21.00;47.29;100474.10;2302917;76;50139;-82
2024/03/12 05:10:30;;;;;;;5.67;2.92;;;;;;;21.00;47.22;100474.92;2339941;76;50155;-81
2024/03/12 05:13:32;;;;;;;6.50;2.90;;;;;;;21.01;47.24;100478.44;2339825;76;50749;-81
2024/03/12 05:16:35;;;;;;;4.28;2.72;;;;;;;20.99;47.24;100473.77;2302911;76;50764;-80
2024/03/12 05:19:37;;;;;;;5.58;3.02;;;;;;;21.00;47.24;100478.14;2277690;76;50088;-81
2024/03/12 05:22:39;;;;;;;6.03;3.17;;;;;;;21.00;47.23;100479.48;2339793;76;51412;-80
2024/03/12 05:25:44;;;;;;;7.78;3.10;;;;;;;21.00;47.22;100483.52;2340036;76;51479;-79
2024/03/12 05:28:46;;;;;;;4.95;2.87;;;;;;;20.98;47.23;100485.05;2304329;76;22267;-80
2024/03/12 05:31:49;;;;;;;5.65;3.00;;;;;;;20.99;47.23;100487.22;2340719;76;51618;-81
2024/03/12 05:34:58;;;;;;;4.65;2.60;;;;;;;20.98;47.20;100489.09;2340513;76;51657;-80
2024/03/12 05:38:07;;;;;;;5.28;2.80;;;;;;;20.98;47.19;100493.12;2340122;76;22716;-80
2024/03/12 05:50:55;;;;;;;4.83;2.77;;;;;;;20.98;47.19;100498.50;2345892;74;22459;-80
2024/03/12 05:53:58;;;;;;;8.00;3.15;;;;;;;21.00;47.41;100504.52;2343736;74;49560;-83
2024/03/12 05:57:00;;;;;;;4.65;2.67;;;;;;;20.99;47.38;100510.94;2382607;74;50612;-83
2024/03/12 06:00:08;;;;;;;12.50;3.22;;;;;;;20.98;47.40;100516.50;2381984;74;50723;-80
2024/03/12 06:03:07;;;;;;;16.12;3.30;;;;;;;20.98;47.50;100512.47;2280222;76;22310;-80
2024/03/12 06:06:09;;;;;;;9.45;3.47;;;;;;;20.98;48.48;100511.95;2341387;74;51827;-81
2024/03/12 06:09:11;;;;;;;12.05;3.47;;;;;;;21.00;48.24;100519.30;2297326;75;52369;-82
2024/03/12 06:12:13;;;;;;;14.63;3.47;;;;;;;21.00;48.44;100519.83;2325739;75;49527;-81
2024/03/12 06:15:16;;;;;;;9.03;3.25;;;;;;;21.01;48.54;100525.52;2309457;76;51269;-82
2024/03/12 06:18:18;;;;;;;17.52;4.17;;;;;;;21.00;48.74;100523.34;2318883;76;49966;-82
2024/03/12 06:21:20;;;;;;;15.70;3.52;;;;;;;21.01;49.12;100534.41;2321206;74;51388;-82
2024/03/12 06:24:23;;;;;;;16.87;4.08;;;;;;;21.04;49.08;100531.83;2356114;74;50253;-83
2024/03/12 06:27:26;;;;;;;19.23;4.50;;;;;;;21.07;50.22;100537.65;2382117;74;51745;-80
2024/03/12 06:30:28;;;;;;;17.00;3.55;;;;;;;21.08;49.83;100550.58;2382193;74;51642;-80
2024/03/12 06:33:31;;;;;;;18.35;3.87;;;;;;;21.09;49.96;100545.01;2316441;74;50888;-81
2024/03/12 06:36:33;;;;;;;21.45;4.70;;;;;;;21.09;50.29;100544.16;2379636;74;52119;-80
2024/03/12 06:39:36;;;;;;;18.67;4.15;;;;;;;21.10;50.54;100548.00;2380179;74;50942;-79
2024/03/12 06:42:38;;;;;;;20.50;4.67;;;;;;;21.15;50.44;100546.58;2342140;74;51021;-81
2024/03/12 06:45:40;;;;;;;20.68;4.35;;;;;;;21.16;50.41;100558.47;2380232;74;50685;-82
2024/03/12 06:48:43;;;;;;;28.40;5.55;;;;;;;21.14;50.36;100552.97;2380386;74;50321;-80
2024/03/12 06:51:50;;;;;;;21.70;4.70;;;;;;;21.13;50.72;100554.84;2380398;74;51559;-79
2024/03/12 06:54:53;;;;;;;27.45;4.67;;;;;;;21.14;50.68;100567.25;2343908;74;51528;-79
2024/03/12 06:57:59;;;;;;;20.97;5.10;;;;;;;21.15;50.66;100555.47;2322350;74;50125;-80
2024/03/12 07:00:59;;;;;;;22.67;4.47;;;;;;;21.14;50.56;100561.05;2369556;74;22396;-80
2024/03/12 07:04:01;;;;;;;16.23;4.08;;;;;;;21.14;50.78;100565.91;2277928;76;51470;-82
2024/03/12 07:07:05;;;;;;;14.73;4.47;;;;;;;21.15;50.82;100568.11;2361413;74;52372;-82
2024/03/12 07:10:11;;;;;;;18.05;4.72;;;;;;;21.17;50.87;100572.74;2317479;75;50938;-82
2024/03/12 07:13:12;;;;;;;25.35;4.75;;;;;;;21.17;50.93;100577.62;2362231;75;22899;-82
2024/03/12 07:16:14;;;;;;;23.50;5.20;;;;;;;21.18;50.73;100579.80;2354602;75;51012;-83
2024/03/12 07:19:17;;;;;;;10.98;4.70;;;;;;;21.17;50.33;100578.12;2302936;76;50944;-83
2024/03/12 07:22:19;;;;;;;20.82;5.33;;;;;;;21.17;50.28;100577.62;2317659;74;50966;-83
2024/03/12 07:25:21;;;;;;;11.60;4.90;;;;;;;21.16;49.25;100582.69;2340667;74;50222;-83
2024/03/12 07:28:25;;;;;;;17.02;5.28;;;;;;;21.15;48.40;100578.86;2339957;76;50514;-82
2024/03/12 07:31:27;;;;;;;12.10;4.80;;;;;;;21.14;47.82;100579.87;2304599;76;22402;-82
2024/03/12 07:34:31;;;;;;;15.32;4.72;;;;;;;21.14;47.69;100580.70;2339572;75;51487;-81
2024/03/12 07:37:38;;;;;;;9.93;4.35;;;;;;;21.14;47.53;100576.66;2338508;76;51491;-82
2024/03/12 07:40:43;;;;;;;10.43;4.35;;;;;;;21.15;47.57;100586.94;2340079;76;50459;-82
2024/03/12 07:43:44;;;;;;;10.55;4.40;;;;;;;21.13;47.50;100585.78;2339991;75;22400;-82
2024/03/12 07:46:47;;;;;;;12.25;4.28;;;;;;;21.13;47.51;100590.34;2303016;76;49665;-83
2024/03/12 07:49:51;;;;;;;9.45;4.03;;;;;;;21.12;47.57;100587.31;2340086;76;50782;-81
2024/03/12 07:52:55;;;;;;;9.28;3.92;;;;;;;21.12;47.53;100595.39;2339981;75;50802;-83
2024/03/12 07:56:00;;;;;;;12.98;4.50;;;;;;;21.13;47.53;100582.27;2339944;76;23860;-82
2024/03/12 07:59:01;;;;;;;12.90;4.25;;;;;;;21.13;47.56;100592.51;2339851;76;22375;-82
2024/03/12 08:02:22;;;;;;;10.72;3.83;;;;;;;21.13;47.49;100589.81;2339908;75;50977;-82
2024/03/12 08:05:10;;;;;;;12.98;3.80;;;;;;;21.12;47.59;100594.04;2332798;76;21976;-81
2024/03/12 08:08:13;;;;;;;6.85;4.00;;;;;;;21.13;47.57;100603.80;2303530;76;51642;-82
2024/03/12 08:11:18;;;;;;;11.48;4.05;;;;;;;21.12;47.59;100592.20;2339931;76;51439;-81
2024/03/12 08:14:19;;;;;;;11.10;4.10;;;;;;;21.13;47.60;100597.06;2304242;76;22479;-82
2024/03/12 08:17:22;;;;;;;10.58;3.75;;;;;;;21.13;47.59;100595.72;2339852;76;50635;-82
2024/03/12 08:20:24;;;;;;;8.30;3.75;;;;;;;21.13;47.54;100598.41;2339736;76;51503;-82
2024/03/12 08:23:27;;;;;;;16.77;4.00;;;;;;;21.12;47.58;100596.23;2277907;76;51476;-83
2024/03/12 08:26:31;;;;;;;7.62;3.72;;;;;;;21.14;47.51;100604.09;2339785;76;50980;-84
2024/03/12 08:29:33;;;;;;;10.75;3.90;;;;;;;21.13;47.56;100599.75;2340177;76;22448;-83
2024/03/12 08:32:36;;;;;;;10.48;3.77;;;;;;;21.14;47.53;100604.09;2340139;75;50311;-83
2024/03/12 08:35:38;;;;;;;9.93;3.45;;;;;;;21.15;47.50;100597.70;2340076;76;51540;-83
2024/03/12 08:38:40;;;;;;;7.12;3.15;;;;;;;21.15;47.48;100597.70;2303354;76;51785;-83
2024/03/12 08:41:44;;;;;;;9.20;3.30;;;;;;;21.14;47.47;100596.02;2303807;76;50182;-83
2024/03/12 08:44:47;;;;;;;10.20;3.27;;;;;;;21.14;47.50;100594.67;2339386;75;51378;-82
2024/03/12 08:47:49;;;;;;;7.85;3.30;;;;;;;21.15;47.48;100601.73;2303236;76;51461;-82
2024/03/12 08:50:51;;;;;;;5.92;3.37;;;;;;;21.15;47.46;100597.18;2303266;76;50777;-81
2024/03/12 08:53:55;;;;;;;7.80;3.50;;;;;;;21.18;47.48;100611.56;2303051;76;49605;-83
2024/03/12 08:56:57;;;;;;;11.00;3.10;;;;;;;21.18;47.49;100610.22;2340323;76;51600;-83
2024/03/12 09:00:01;;;;;;;5.85;3.05;;;;;;;21.19;47.50;100609.18;2340290;76;50667;-83
2024/03/12 09:03:04;;;;;;;7.17;3.40;;;;;;;21.21;47.47;100614.38;2303303;76;50986;-82
2024/03/12 09:06:08;;;;;;;7.95;3.20;;;;;;;21.22;47.48;100618.71;2278736;76;51378;-81
2024/03/12 09:09:14;;;;;;;6.83;3.22;;;;;;;21.23;47.35;100615.01;2303724;76;51529;-83
2024/03/12 09:12:14;;;;;;;7.40;3.17;;;;;;;21.25;47.21;100611.61;2339973;75;22453;-84
2024/03/12 09:15:16;;;;;;;6.25;3.35;;;;;;;21.26;47.12;100621.33;2340106;76;50719;-83
2024/03/12 09:18:20;;;;;;;8.43;3.15;;;;;;;21.28;47.14;100619.27;2303032;76;51042;-82
2024/03/12 09:21:22;;;;;;;6.97;3.10;;;;;;;21.29;47.03;100618.23;2303843;76;51592;-83
2024/03/12 09:24:24;;;;;;;5.15;2.80;;;;;;;21.31;47.03;100625.59;2340313;75;50772;-83
2024/03/12 09:27:27;;;;;;;6.50;3.17;;;;;;;21.30;46.99;100619.91;2278172;76;51028;-82
2024/03/12 09:30:29;;;;;;;6.35;2.80;;;;;;;21.31;47.00;100625.59;2303344;76;50736;-82
2024/03/12 09:33:31;;;;;;;5.55;3.10;;;;;;;21.33;46.98;100620.02;2339969;75;51443;-82
2024/03/12 09:36:33;;;;;;;7.75;3.08;;;;;;;21.31;46.92;100619.69;2303496;76;50602;-82
2024/03/12 09:39:39;;;;;;;5.25;2.85;;;;;;;21.34;46.91;100618.97;2340227;76;50687;-82
2024/03/12 09:42:44;;;;;;;4.30;2.92;;;;;;;21.33;46.93;100618.67;2278781;75;51012;-82
2024/03/12 09:45:46;;;;;;;5.70;3.02;;;;;;;21.33;46.90;100614.11;2302853;76;51583;-82
2024/03/12 09:48:51;;;;;;;5.78;3.08;;;;;;;21.34;46.95;100617.11;2339731;76;50642;-82
2024/03/12 09:51:53;;;;;;;6.53;3.07;;;;;;;21.36;46.89;100616.39;2302888;75;49394;-82
2024/03/12 09:54:57;;;;;;;4.05;2.47;;;;;;;21.36;46.92;100619.09;2339975;76;51528;-82
2024/03/12 09:57:59;;;;;;;5.12;2.80;;;;;;;21.37;46.93;100618.56;2340130;76;49926;-82
2024/03/12 10:01:04;;;;;;;6.12;2.95;;;;;;;21.37;46.93;100616.70;2303511;76;50964;-83
2024/03/12 10:04:06;;;;;;;5.60;3.00;;;;;;;21.30;46.88;100599.20;2339853;75;51541;-82
2024/03/12 10:07:09;;;;;;;5.92;2.67;;;;;;;21.30;46.88;100599.20;2302555;76;50119;-81
2024/03/12 10:10:12;;;;;;;5.12;2.77;;;;;;;21.42;46.88;100623.68;2340100;76;50955;-82
2024/03/12 10:13:15;;;;;;;4.22;2.80;;;;;;;21.44;46.85;100623.48;2303005;76;50282;-82
2024/03/12 10:16:19;;;;;;;3.95;3.08;;;;;;;21.45;46.86;100617.06;2277325;76;49659;-80
2024/03/12 10:19:25;;;;;;;4.05;2.47;;;;;;;21.48;46.79;100623.41;2339898;76;51726;-84
2024/03/12 10:22:27;;;;;;;3.77;2.30;;;;;;;21.49;46.80;100624.53;2340254;75;22921;-82
2024/03/12 10:25:30;;;;;;;7.47;2.90;;;;;;;21.52;46.74;100630.03;2340049;76;51596;-83
2024/03/12 10:28:32;;;;;;;3.55;2.30;;;;;;;21.54;46.69;100625.28;2340024;76;50854;-83
2024/03/12 10:31:39;;;;;;;3.58;2.20;;;;;;;21.56;46.68;100623.22;2303191;76;50152;-83
2024/03/12 10:34:39;;;;;;;4.87;2.20;;;;;;;21.59;46.66;100627.37;2339871;75;22379;-83
2024/03/12 10:37:41;;;;;;;4.58;2.40;;;;;;;21.62;46.60;100623.73;2340326;76;52064;-83
2024/03/12 10:40:43;;;;;;;4.85;2.62;;;;;;;21.64;46.60;100628.41;2278336;76;51048;-81
2024/03/12 10:43:49;;;;;;;4.12;2.52;;;;;;;21.66;46.57;100622.31;2303909;76;51486;-81
2024/03/12 10:46:51;;;;;;;4.75;2.50;;;;;;;21.68;46.50;100617.56;2340285;76;51170;-82
2024/03/12 10:49:54;;;;;;;4.80;2.62;;;;;;;21.69;46.51;100628.62;2340203;76;52247;-82
2024/03/12 10:52:57;;;;;;;3.15;2.30;;;;;;;21.71;46.50;100626.57;2340322;75;51182;-82
2024/03/12 10:56:01;;;;;;;4.12;2.00;;;;;;;21.75;46.44;100618.90;2303408;76;50937;-82
2024/03/12 10:59:03;;;;;;;2.70;1.82;;;;;;;21.80;46.30;100620.98;2339688;76;22399;-82
2024/03/12 11:02:06;;;;;;;3.17;2.30;;;;;;;21.80;46.42;100621.80;2339773;75;51509;-81
2024/03/12 11:05:09;;;;;;;3.00;2.20;;;;;;;21.83;46.31;100621.39;2303304;76;49623;-82
2024/03/12 11:08:14;;;;;;;3.60;2.15;;;;;;;21.84;46.29;100625.76;2340622;76;50654;-82
2024/03/12 11:11:16;;;;;;;4.15;2.00;;;;;;;21.85;46.31;100624.72;2340321;76;25243;-82
2024/03/12 11:14:18;;;;;;;2.80;1.95;;;;;;;21.87;46.31;100619.95;2339805;75;51603;-82
2024/03/12 11:17:25;;;;;;;4.40;2.20;;;;;;;21.90;46.22;100625.45;2339671;76;50769;-81
2024/03/12 11:20:28;;;;;;;4.05;1.92;;;;;;;21.92;46.21;100622.86;2277514;76;49379;-83
2024/03/12 11:23:32;;;;;;;3.95;2.30;;;;;;;21.92;46.18;100621.52;2339924;75;51505;-82
2024/03/12 11:26:36;;;;;;;2.90;2.00;;;;;;;21.95;46.12;100611.67;2339718;76;50796;-83
2024/03/12 11:30:08;;;;;;;3.08;2.12;;;;;;;21.92;46.16;100616.13;2302822;76;49539;-83
2024/03/12 11:33:08;;;;;;;3.92;1.92;;;;;;;21.91;46.20;100618.52;2339617;75;22416;-83
2024/03/12 11:36:24;;;;;;;2.42;1.80;;;;;;;21.93;46.11;100625.86;2302974;76;50665;-82
2024/03/12 11:39:30;;;;;;;4.78;1.90;;;;;;;21.92;46.10;100620.17;2339598;76;50847;-82
2024/03/12 11:42:33;;;;;;;3.75;2.25;;;;;;;21.94;46.13;100616.76;2339636;75;52306;-83
2024/03/12 11:45:45;;;;;;;4.83;2.15;;;;;;;21.96;46.05;100613.84;2302571;76;51123;-82
2024/03/12 11:48:47;;;;;;;4.65;1.92;;;;;;;21.98;45.99;100602.87;2340222;76;24618;-82
2024/03/12 11:52:00;;;;;;;3.77;1.82;;;;;;;22.03;45.87;100617.38;2340132;75;50800;-82
2024/03/12 11:54:59;;;;;;;2.22;1.82;;;;;;;22.04;45.87;100612.80;2301757;76;22398;-80
2024/03/12 11:58:01;;;;;;;2.67;1.80;;;;;;;22.05;45.85;100614.48;2302893;76;50998;-81
2024/03/12 12:01:04;;;;;;;5.12;1.90;;;;;;;22.07;45.75;100611.89;2340155;76;51541;-83
2024/03/12 12:04:14;;;;;;;2.60;1.90;;;;;;;22.06;45.87;100611.56;2303534;76;51567;-82
2024/03/12 12:07:17;;;;;;;2.47;1.87;;;;;;;22.07;45.80;100616.46;2340081;75;51630;-83
2024/03/12 12:10:20;;;;;;;2.87;1.67;;;;;;;22.06;45.75;100617.48;2278112;76;50640;-83
2024/03/12 12:13:23;;;;;;;2.45;1.60;;;;;;;22.07;45.67;100617.28;2340079;75;50190;-81
2024/03/12 12:16:25;;;;;;;2.52;1.67;;;;;;;22.07;45.73;100613.24;2339430;76;50793;-82
2024/03/12 12:19:27;;;;;;;3.22;1.82;;;;;;;22.10;45.67;100614.17;2302865;76;51442;-83
2024/03/12 12:22:37;;;;;;;3.40;1.70;;;;;;;22.13;45.58;100608.88;2339716;75;51008;-83
2024/03/12 12:25:35;;;;;;;3.35;2.08;;;;;;;22.14;45.54;100609.18;2338190;76;22376;-83
2024/03/12 12:28:38;;;;;;;3.45;1.95;;;;;;;22.16;45.50;100613.33;2339585;76;50592;-82
2024/03/12 12:31:41;;;;;;;2.27;1.72;;;;;;;22.17;45.51;100612.31;2339739;76;50403;-83
2024/03/12 12:34:43;;;;;;;2.50;1.95;;;;;;;22.15;45.59;100613.55;2302977;76;50988;-82
2024/03/12 12:37:46;;;;;;;1.90;1.62;;;;;;;22.16;45.55;100606.59;2339892;76;50296;-83
2024/03/12 12:40:49;;;;;;;2.90;1.80;;;;;;;22.14;45.58;100615.92;2340277;76;50566;-83
2024/03/12 12:43:54;;;;;;;2.75;1.80;;;;;;;22.15;45.61;100615.72;2340116;75;51477;-83
2024/03/12 12:46:56;;;;;;;3.27;2.15;;;;;;;22.15;45.72;100610.86;2340320;76;50806;-82
2024/03/12 12:49:59;;;;;;;3.35;1.90;;;;;;;22.14;45.66;100603.80;2340227;76;51525;-81
2024/03/12 12:53:02;;;;;;;3.37;1.60;;;;;;;22.15;45.66;100608.16;2340056;75;51241;-82
2024/03/12 12:56:08;;;;;;;2.30;1.40;;;;;;;22.13;45.71;100607.53;2303403;76;50678;-82
2024/03/12 12:59:12;;;;;;;2.22;1.52;;;;;;;22.12;45.72;100613.98;2303954;76;22325;-82
2024/03/12 13:02:18;;;;;;;2.85;1.60;;;;;;;22.13;45.76;100612.92;2337905;75;50442;-82
2024/03/12 13:05:25;;;;;;;2.33;1.70;;;;;;;22.12;45.79;100603.20;2340543;75;22411;-82
2024/03/12 13:08:29;;;;;;;2.45;1.85;;;;;;;22.14;45.74;100599.75;2303287;76;49624;-82
2024/03/12 13:11:33;;;;;;;2.15;1.55;;;;;;;22.15;45.76;100612.20;2340412;76;50732;-85
2024/03/12 13:14:41;;;;;;;2.47;1.57;;;;;;;22.15;45.75;100614.91;2340402;75;50698;-82
2024/03/12 13:17:42;;;;;;;1.75;1.62;;;;;;;22.18;45.68;100610.44;2305118;76;22440;-82
2024/03/12 13:20:45;;;;;;;2.10;1.52;;;;;;;22.15;45.73;100613.03;2340354;76;50489;-82
2024/03/12 13:23:47;;;;;;;2.25;1.72;;;;;;;22.14;45.77;100611.88;2303312;76;51704;-82
2024/03/12 13:26:49;;;;;;;2.33;1.32;;;;;;;22.15;45.73;100611.68;2303374;76;51464;-82
2024/03/12 13:29:51;;;;;;;1.95;1.52;;;;;;;22.11;45.67;100615.81;2340369;76;50096;-82
2024/03/12 13:32:54;;;;;;;1.72;1.50;;;;;;;22.09;45.73;100619.27;2303306;76;49651;-83
2024/03/12 13:35:58;;;;;;;3.20;1.95;;;;;;;22.07;45.64;100613.24;2340377;76;50187;-83
2024/03/12 13:39:01;;;;;;;3.15;1.50;;;;;;;22.06;45.52;100617.48;2340172;76;22498;-83
2024/03/12 13:42:05;;;;;;;1.77;1.37;;;;;;;22.02;45.53;100616.25;2278841;75;51523;-83
2024/03/12 13:45:07;;;;;;;2.45;1.47;;;;;;;22.02;45.57;100609.52;2303665;76;51192;-83
2024/03/12 13:48:11;;;;;;;1.70;1.55;;;;;;;22.02;45.53;100608.17;2277975;76;51008;-83
2024/03/12 13:51:13;;;;;;;1.65;1.40;;;;;;;22.03;45.58;100609.81;2340373;76;23183;-82
2024/03/12 13:54:15;;;;;;;1.50;1.12;;;;;;;22.04;45.61;100608.27;2339836;75;49819;-81
2024/03/12 13:57:18;;;;;;;3.70;1.42;;;;;;;22.05;45.64;100613.14;2302919;76;49583;-82
2024/03/12 14:00:20;;;;;;;2.80;1.70;;;;;;;22.05;45.68;100610.44;2339789;76;50721;-82
2024/03/12 14:03:23;;;;;;;1.57;1.40;;;;;;;22.04;45.69;100617.70;2303268;76;51477;-83
2024/03/12 14:06:25;;;;;;;2.20;1.60;;;;;;;22.06;45.76;100618.83;2277982;76;50259;-83
2024/03/12 14:09:27;;;;;;;1.90;1.60;;;;;;;22.05;45.75;100617.18;2339906;75;50660;-82
2024/03/12 14:12:29;;;;;;;2.27;1.70;;;;;;;22.03;45.80;100609.29;2277919;75;50950;-82
2024/03/12 14:15:33;;;;;;;2.25;1.50;;;;;;;22.04;45.75;100622.23;2339989;76;50672;-83
2024/03/12 14:18:37;;;;;;;2.95;1.50;;;;;;;21.99;45.62;100614.80;2340572;76;24723;-82
2024/03/12 14:21:39;;;;;;;1.72;1.60;;;;;;;21.98;45.61;100621.73;2303217;76;50977;-83